createdAt,value
2022-10-15T00:01:23.839Z,44.53
2022-10-15T00:04:04.752Z,43.20
2022-10-15T00:06:45.689Z,42.90
2022-10-15T00:09:33.764Z,41.75
2022-10-15T00:12:13.764Z,44.38
2022-10-15T00:14:54.839Z,43.70
2022-10-15T00:17:35.758Z,43.20
2022-10-15T00:20:17.875Z,42.38
2022-10-15T00:22:57.781Z,44.65
2022-10-15T00:25:51.734Z,44.17
2022-10-15T00:28:38.802Z,46.03
2022-10-15T00:31:30.748Z,44.45
2022-10-15T00:34:11.769Z,43.35
2022-10-15T00:36:51.907Z,45.75
2022-10-15T00:39:31.774Z,45.03
2022-10-15T00:42:20.027Z,43.10
2022-10-15T00:44:55.017Z,44.30
2022-10-15T00:47:44.772Z,42.90
2022-10-15T00:50:31.785Z,42.20
2022-10-15T00:53:15.839Z,43.25
2022-10-15T00:55:57.764Z,41.10
2022-10-15T00:58:38.843Z,43.58
2022-10-15T01:01:18.810Z,43.38
2022-10-15T01:04:00.855Z,39.58
2022-10-15T01:06:41.768Z,42.80
2022-10-15T01:09:22.867Z,41.72
2022-10-15T01:12:03.811Z,45.42
2022-10-15T01:14:47.857Z,42.67
2022-10-15T01:17:46.771Z,38.22
2022-10-15T01:20:37.861Z,40.80
2022-10-15T01:23:57.773Z,40.40
2022-10-15T01:26:56.864Z,39.58
2022-10-15T01:29:51.778Z,40.35
2022-10-15T01:32:36.885Z,41.20
2022-10-15T01:35:39.776Z,39.90
2022-10-15T01:38:45.868Z,38.53
2022-10-15T01:41:28.787Z,39.28
2022-10-15T01:44:20.862Z,41.17
2022-10-15T01:47:12.833Z,38.05
2022-10-15T01:49:55.860Z,38.00
2022-10-15T01:52:40.821Z,35.13
2022-10-15T01:55:23.892Z,37.95
2022-10-15T01:58:06.822Z,36.88
2022-10-15T02:00:49.901Z,37.92
2022-10-15T02:03:31.790Z,41.78
2022-10-15T02:06:19.852Z,38.33
2022-10-15T02:09:21.793Z,38.75
2022-10-15T02:12:14.878Z,41.38
2022-10-15T02:15:07.793Z,41.15
2022-10-15T02:18:02.818Z,40.45
2022-10-15T02:20:55.797Z,40.58
2022-10-15T02:23:39.895Z,38.88
2022-10-15T02:26:20.821Z,37.50
2022-10-15T02:29:11.854Z,40.35
2022-10-15T02:31:53.825Z,41.45
2022-10-15T02:34:36.963Z,41.72
2022-10-15T02:37:16.828Z,40.67
2022-10-15T02:39:57.880Z,43.25
2022-10-15T02:42:37.798Z,46.33
2022-10-15T02:45:25.857Z,43.78
2022-10-15T02:48:05.813Z,47.63
2022-10-15T02:50:53.831Z,48.10
2022-10-15T02:53:33.832Z,49.45
2022-10-15T02:56:21.863Z,48.10
2022-10-15T02:59:01.832Z,51.80
2022-10-15T03:01:49.837Z,51.75
2022-10-15T03:04:29.836Z,56.15
2022-10-15T03:07:10.935Z,50.63
2022-10-15T03:09:50.835Z,52.40
2022-10-15T03:12:31.917Z,51.78
2022-10-15T03:15:12.834Z,53.95
2022-10-15T03:17:53.903Z,52.50
2022-10-15T03:20:33.818Z,53.83
2022-10-15T03:23:21.882Z,54.50
2022-10-15T03:25:55.619Z,51.50
2022-10-15T03:28:42.881Z,55.42
2022-10-15T03:31:16.392Z,56.72
2022-10-15T03:34:03.826Z,53.80
2022-10-15T03:36:37.397Z,53.50
2022-10-15T03:39:25.835Z,56.63
2022-10-15T03:42:05.847Z,57.45
2022-10-15T03:44:46.946Z,57.60
2022-10-15T03:47:26.836Z,58.35
2022-10-15T03:50:14.834Z,57.35
2022-10-15T03:52:48.376Z,56.50
2022-10-15T03:55:35.851Z,55.65
2022-10-15T03:58:22.836Z,54.25
2022-10-15T04:01:03.914Z,56.53
2022-10-15T04:03:57.872Z,66.43
2022-10-15T04:09:18.934Z,54.80
2022-10-15T04:12:05.841Z,51.05
2022-10-15T04:14:39.956Z,52.30
2022-10-15T04:17:26.855Z,52.80
2022-10-15T04:20:01.092Z,51.17
2022-10-15T04:22:47.839Z,49.88
2022-10-15T04:25:21.919Z,49.00
2022-10-15T04:28:09.941Z,50.58
2022-10-15T04:30:50.874Z,50.17
2022-10-15T04:33:44.874Z,53.13
2022-10-15T04:36:31.874Z,52.35
2022-10-15T04:39:07.636Z,51.55
2022-10-15T04:41:56.875Z,53.10
2022-10-15T04:44:37.856Z,52.53
2022-10-15T04:47:31.868Z,53.95
2022-10-15T04:52:52.936Z,49.33
2022-10-15T04:55:39.875Z,53.20
2022-10-15T04:58:20.937Z,55.42
2022-10-15T05:01:00.895Z,58.13
2022-10-15T05:03:44.871Z,54.22
2022-10-15T05:06:27.866Z,55.00
2022-10-15T05:09:15.872Z,60.05
2022-10-15T05:11:56.846Z,58.75
2022-10-15T05:14:44.881Z,60.72
2022-10-15T05:17:18.798Z,59.00
2022-10-15T05:20:06.880Z,58.17
2022-10-15T05:22:40.820Z,55.30
2022-10-15T05:25:28.898Z,54.75
2022-10-15T05:28:08.882Z,56.25
2022-10-15T05:30:56.883Z,55.10
2022-10-15T05:33:30.811Z,54.20
2022-10-15T05:36:27.889Z,57.33
2022-10-15T05:39:16.890Z,58.35
2022-10-15T05:41:58.464Z,55.33
2022-10-15T05:44:37.875Z,54.45
2022-10-15T05:47:18.958Z,50.33
2022-10-15T05:50:09.517Z,51.85
2022-10-15T05:52:45.967Z,49.20
2022-10-15T05:55:32.880Z,48.20
2022-10-15T05:58:10.983Z,50.03
2022-10-15T06:01:04.897Z,50.10
2022-10-15T06:03:38.952Z,48.88
2022-10-15T06:06:28.894Z,51.05
2022-10-15T06:09:16.889Z,50.83
2022-10-15T06:11:56.904Z,45.80
2022-10-15T06:14:37.943Z,46.33
2022-10-15T06:17:17.914Z,47.50
2022-10-15T06:20:05.916Z,43.88
2022-10-15T06:22:40.182Z,44.83
2022-10-15T06:25:27.896Z,46.03
2022-10-15T06:28:03.219Z,46.40
2022-10-15T06:30:50.908Z,45.25
2022-10-15T06:33:24.440Z,45.38
2022-10-15T06:36:16.902Z,44.20
2022-10-15T06:38:50.833Z,44.47
2022-10-15T06:41:38.899Z,44.72
2022-10-15T06:44:25.974Z,46.83
2022-10-15T06:46:59.978Z,45.40
2022-10-15T06:49:46.898Z,47.97
2022-10-15T06:52:20.973Z,43.92
2022-10-15T06:55:07.901Z,45.42
2022-10-15T06:57:55.913Z,45.03
2022-10-15T07:00:29.877Z,42.75
2022-10-15T07:03:21.949Z,41.33
2022-10-15T07:05:55.830Z,42.25
2022-10-15T07:08:43.899Z,41.28
2022-10-15T07:11:24.923Z,41.83
2022-10-15T07:14:05.975Z,42.83
2022-10-15T07:16:46.943Z,42.15
2022-10-15T07:19:28.518Z,45.13
2022-10-15T07:22:08.949Z,40.72
2022-10-15T07:24:49.993Z,40.85
2022-10-15T07:27:29.914Z,39.58
2022-10-15T07:30:12.013Z,40.42
2022-10-15T07:32:51.955Z,38.90
2022-10-15T07:35:40.948Z,33.92
2022-10-15T07:38:14.467Z,32.95
2022-10-15T07:41:01.950Z,33.42
2022-10-15T07:43:36.757Z,31.67
2022-10-15T07:46:24.935Z,30.95
2022-10-15T07:48:58.506Z,31.33
2022-10-15T07:51:45.936Z,30.30
2022-10-15T07:54:25.913Z,28.77
2022-10-15T07:57:13.926Z,28.48
2022-10-15T07:59:53.951Z,29.65
2022-10-15T08:02:35.003Z,26.10
2022-10-15T08:05:14.928Z,29.65
2022-10-15T08:07:55.999Z,27.15
2022-10-15T08:10:35.947Z,27.67
2022-10-15T08:13:17.029Z,28.80
2022-10-15T08:16:04.992Z,28.40
2022-10-15T08:18:45.993Z,28.17
2022-10-15T08:21:42.727Z,27.67
2022-10-15T08:24:31.938Z,25.75
2022-10-15T08:27:12.922Z,26.48
2022-10-15T08:30:06.949Z,27.75
2022-10-15T08:32:53.935Z,28.85
2022-10-15T08:35:34.975Z,28.35
2022-10-15T08:38:21.979Z,29.33
2022-10-15T08:41:04.956Z,26.85
2022-10-15T08:44:01.003Z,27.38
2022-10-15T08:46:54.949Z,27.92
2022-10-15T08:49:36.038Z,29.02
2022-10-15T08:52:30.959Z,27.20
2022-10-15T08:55:07.029Z,26.38
2022-10-15T08:58:19.968Z,25.48
2022-10-15T09:01:11.989Z,27.85
2022-10-15T09:04:16.263Z,28.35
2022-10-15T09:07:08.975Z,25.35
2022-10-15T09:09:53.238Z,25.23
2022-10-15T09:13:03.966Z,24.83
2022-10-15T09:15:52.722Z,26.10
2022-10-15T09:18:44.009Z,26.00
2022-10-15T09:21:17.979Z,27.85
2022-10-15T09:24:08.958Z,25.15
2022-10-15T09:27:16.003Z,24.50
2022-10-15T09:30:27.976Z,27.85
2022-10-15T09:33:24.803Z,26.10
2022-10-15T09:36:43.036Z,25.17
2022-10-15T09:39:41.491Z,25.75
2022-10-15T09:42:51.976Z,24.92
2022-10-15T09:45:25.943Z,23.98
2022-10-15T09:48:13.992Z,25.13
2022-10-15T09:50:56.973Z,26.70
2022-10-15T09:54:10.003Z,24.75
2022-10-15T09:56:54.066Z,25.23
2022-10-15T09:59:41.989Z,26.40
2022-10-15T10:02:39.033Z,24.10
2022-10-15T10:05:26.008Z,23.08
2022-10-15T10:08:21.873Z,24.27
2022-10-15T10:11:12.980Z,21.83
2022-10-15T10:13:56.150Z,19.70
2022-10-15T10:16:37.987Z,20.08
2022-10-15T10:19:21.068Z,20.95
2022-10-15T10:22:23.297Z,21.98
2022-10-15T10:25:04.066Z,20.88
2022-10-15T10:27:44.017Z,23.55
2022-10-15T10:30:31.990Z,21.85
2022-10-15T10:33:13.020Z,22.95
2022-10-15T10:35:58.181Z,23.85
2022-10-15T10:38:42.990Z,23.92
2022-10-15T10:41:24.069Z,23.98
2022-10-15T10:44:04.004Z,25.23
2022-10-15T10:46:45.078Z,23.67
2022-10-15T10:49:39.004Z,25.90
2022-10-15T10:52:34.160Z,26.95
2022-10-15T10:55:24.005Z,27.15
2022-10-15T10:58:06.085Z,28.95
2022-10-15T11:00:52.061Z,30.92
2022-10-15T11:03:43.292Z,28.67
2022-10-15T11:07:08.049Z,29.05
2022-10-15T11:09:52.364Z,25.92
2022-10-15T11:13:00.083Z,26.67
2022-10-15T11:15:53.021Z,23.90
2022-10-15T11:18:42.041Z,24.05
2022-10-15T11:21:47.557Z,23.33
2022-10-15T11:24:42.593Z,23.10
2022-10-15T11:27:56.093Z,24.48
2022-10-15T11:30:42.044Z,22.20
2022-10-15T11:33:45.039Z,22.10
2022-10-15T11:36:27.669Z,23.23
2022-10-15T11:39:30.066Z,23.20
2022-10-15T11:42:34.234Z,22.25
2022-10-15T11:45:33.104Z,24.20
2022-10-15T11:48:44.048Z,20.95
2022-10-15T11:51:38.107Z,22.67
2022-10-15T11:54:42.058Z,20.95
2022-10-15T11:57:27.055Z,21.33
2022-10-15T12:01:08.029Z,19.80
2022-10-15T12:04:09.100Z,19.10
2022-10-15T12:06:54.145Z,16.90
2022-10-15T12:09:46.049Z,18.17
2022-10-15T12:12:36.050Z,18.35
2022-10-15T12:15:38.043Z,18.48
2022-10-15T12:18:27.104Z,17.60
2022-10-15T12:21:56.039Z,17.33
2022-10-15T12:24:47.352Z,17.13
2022-10-15T12:27:41.060Z,18.33
2022-10-15T12:30:15.201Z,18.88
2022-10-15T12:33:02.074Z,18.45
2022-10-15T12:35:53.086Z,18.63
2022-10-15T12:38:50.064Z,17.67
2022-10-15T12:41:24.118Z,21.00
2022-10-15T12:44:24.058Z,19.48
2022-10-15T12:47:05.100Z,19.38
2022-10-15T12:50:01.061Z,19.05
2022-10-15T12:53:03.070Z,19.23
2022-10-15T12:55:37.180Z,19.83
2022-10-15T12:58:50.099Z,20.25
2022-10-15T13:01:26.223Z,19.02
2022-10-15T13:04:13.080Z,20.00
2022-10-15T13:06:54.089Z,20.75
2022-10-15T13:09:48.082Z,18.65
2022-10-15T13:12:43.071Z,20.55
2022-10-15T13:15:36.083Z,21.25
2022-10-15T13:18:20.140Z,18.98
2022-10-15T13:21:09.909Z,20.95
2022-10-15T13:23:53.189Z,19.63
2022-10-15T13:26:40.084Z,19.98
2022-10-15T13:29:23.204Z,20.35
2022-10-15T13:32:12.062Z,22.23
2022-10-15T13:34:46.159Z,21.20
2022-10-15T13:37:42.080Z,19.48
2022-10-15T13:40:35.167Z,18.40
2022-10-15T13:43:37.075Z,18.38
2022-10-15T13:46:24.081Z,18.52
2022-10-15T13:49:16.203Z,17.98
2022-10-15T13:52:03.092Z,18.25
2022-10-15T13:54:37.585Z,18.15
2022-10-15T13:57:25.141Z,18.88
2022-10-15T13:59:59.244Z,18.95
2022-10-15T14:02:46.134Z,17.17
2022-10-15T14:05:30.081Z,16.60
2022-10-15T14:08:43.105Z,18.13
2022-10-15T14:11:18.915Z,20.20
2022-10-15T14:14:06.107Z,19.02
2022-10-15T14:16:53.119Z,19.42
2022-10-15T14:19:43.110Z,19.23
2022-10-15T14:22:25.206Z,21.48
2022-10-15T14:25:17.113Z,20.92
2022-10-15T14:27:53.170Z,20.33
2022-10-15T14:30:43.119Z,20.95
2022-10-15T14:33:46.393Z,21.08
2022-10-15T14:36:48.099Z,20.88
2022-10-15T14:39:41.190Z,20.63
2022-10-15T14:42:38.124Z,19.38
2022-10-15T14:45:39.106Z,19.83
2022-10-15T14:48:33.105Z,19.75
2022-10-15T14:51:11.168Z,21.00
2022-10-15T14:54:00.124Z,21.88
2022-10-15T14:56:38.177Z,20.92
2022-10-15T14:59:27.132Z,18.65
2022-10-15T15:02:04.177Z,20.27
2022-10-15T15:04:59.159Z,18.70
2022-10-15T15:07:47.117Z,16.23
2022-10-15T15:10:21.103Z,22.02
2022-10-15T15:13:10.209Z,18.48
2022-10-15T15:15:43.669Z,20.40
2022-10-15T15:18:31.137Z,18.55
2022-10-15T15:21:20.144Z,18.10
2022-10-15T15:24:08.123Z,21.05
2022-10-15T15:26:41.636Z,18.38
2022-10-15T15:29:29.129Z,21.02
2022-10-15T15:32:09.149Z,20.65
2022-10-15T15:34:50.234Z,20.48
2022-10-15T15:37:31.150Z,20.73
2022-10-15T15:40:12.212Z,19.55
2022-10-15T15:42:53.108Z,21.90
2022-10-15T15:45:41.143Z,19.50
2022-10-15T15:48:21.146Z,20.67
2022-10-15T15:51:05.283Z,22.77
2022-10-15T15:53:45.137Z,39.90
2022-10-15T15:56:26.201Z,23.88
2022-10-15T15:59:07.155Z,22.80
2022-10-15T16:01:48.321Z,24.50
2022-10-15T16:04:28.147Z,25.02
2022-10-15T16:07:11.822Z,24.35
2022-10-15T16:09:53.145Z,23.90
2022-10-15T16:12:41.149Z,22.73
2022-10-15T16:15:15.403Z,25.67
2022-10-15T16:18:03.163Z,22.92
2022-10-15T16:20:39.554Z,22.48
2022-10-15T16:23:27.168Z,24.03
2022-10-15T16:26:00.769Z,27.00
2022-10-15T16:28:48.139Z,24.08
2022-10-15T16:31:27.897Z,30.40
2022-10-15T16:34:18.150Z,80.07
2022-10-15T16:36:51.724Z,46.42
2022-10-15T16:39:39.173Z,60.85
2022-10-15T16:42:13.977Z,88.97
2022-10-15T16:45:02.166Z,40.95
2022-10-15T16:47:42.165Z,33.10
2022-10-15T16:50:23.817Z,36.88
2022-10-15T16:53:04.158Z,56.83
2022-10-15T16:55:45.228Z,47.58
2022-10-15T16:58:25.173Z,38.75
2022-10-15T17:01:10.267Z,30.20
2022-10-15T17:03:50.193Z,28.30
2022-10-15T17:06:33.219Z,27.60
2022-10-15T17:09:13.183Z,28.48
2022-10-15T17:11:54.244Z,30.23
2022-10-15T17:14:34.163Z,33.05
2022-10-15T17:17:22.181Z,32.88
2022-10-15T17:19:55.660Z,33.03
2022-10-15T17:22:44.191Z,32.85
2022-10-15T17:25:19.513Z,31.67
2022-10-15T17:28:09.280Z,33.85
2022-10-15T17:30:46.015Z,34.03
2022-10-15T17:33:34.173Z,59.75
2022-10-15T17:36:25.195Z,48.17
2022-10-15T17:39:13.187Z,41.35
2022-10-15T17:41:53.213Z,46.85
2022-10-15T17:44:41.186Z,45.75
2022-10-15T17:47:14.706Z,52.72
2022-10-15T17:50:02.198Z,48.92
2022-10-15T17:52:42.180Z,37.47
2022-10-15T17:55:31.204Z,44.28
2022-10-15T17:58:05.046Z,40.38
2022-10-15T18:00:53.222Z,36.85
2022-10-15T18:03:28.453Z,33.85
2022-10-15T18:06:26.185Z,34.17
2022-10-15T18:09:00.377Z,34.20
2022-10-15T18:11:48.190Z,36.58
2022-10-15T18:14:21.921Z,36.63
2022-10-15T18:17:09.199Z,37.70
2022-10-15T18:19:42.887Z,36.55
2022-10-15T18:22:30.205Z,37.78
2022-10-15T18:25:10.212Z,40.88
2022-10-15T18:27:51.268Z,39.85
2022-10-15T18:30:31.208Z,38.95
2022-10-15T18:33:19.195Z,37.22
2022-10-15T18:35:53.926Z,37.17
2022-10-15T18:38:41.205Z,36.28
2022-10-15T18:41:19.269Z,37.47
2022-10-15T18:44:12.195Z,41.53
2022-10-15T18:46:52.231Z,40.33
2022-10-15T18:49:33.313Z,35.22
2022-10-15T18:52:35.000Z,47.38
2022-10-15T18:55:32.201Z,43.65
2022-10-15T18:58:19.255Z,44.35
2022-10-15T19:00:53.312Z,43.70
2022-10-15T19:03:40.222Z,52.22
2022-10-15T19:06:21.321Z,41.42
2022-10-15T19:09:04.241Z,51.15
2022-10-15T19:11:47.372Z,51.92
2022-10-15T19:14:30.323Z,65.13
2022-10-15T19:17:18.237Z,59.88
2022-10-15T19:19:51.792Z,71.25
2022-10-15T19:22:39.214Z,62.30
2022-10-15T19:25:12.821Z,60.95
2022-10-15T19:28:00.223Z,65.82
2022-10-15T19:30:34.134Z,68.10
2022-10-15T19:33:22.238Z,69.93
2022-10-15T19:35:56.172Z,62.75
2022-10-15T19:38:44.244Z,58.08
2022-10-15T19:41:38.234Z,54.00
2022-10-15T19:47:07.423Z,47.55
2022-10-15T19:49:57.215Z,52.50
2022-10-15T19:52:31.403Z,55.90
2022-10-15T19:55:18.258Z,51.85
2022-10-15T19:57:59.259Z,49.60
2022-10-15T20:00:55.261Z,46.85
2022-10-15T20:03:42.240Z,42.28
2022-10-15T20:06:23.275Z,44.13
2022-10-15T20:09:20.239Z,40.53
2022-10-15T20:12:07.270Z,41.13
2022-10-15T20:14:48.247Z,40.88
2022-10-15T20:17:42.251Z,39.72
2022-10-15T20:20:29.253Z,43.00
2022-10-15T20:23:03.376Z,42.65
2022-10-15T20:25:51.263Z,42.95
2022-10-15T20:28:25.376Z,43.47
2022-10-15T20:31:40.301Z,39.72
2022-10-15T20:34:21.252Z,37.45
2022-10-15T20:37:15.257Z,39.30
2022-10-15T20:40:02.277Z,37.17
2022-10-15T20:42:39.128Z,34.60
